sensor_id;sensor_type;location;lat;lon;timestamp;P1;durP1;ratioP1;P2;durP2;ratioP2
8161;SDS011;16778;48.154;15.094;2022-07-29T00:00:07;1.57;;;1.10;;
8161;SDS011;16778;48.154;15.094;2022-07-29T00:02:35;1.00;;;0.90;;
8161;SDS011;16778;48.154;15.094;2022-07-29T00:05:02;0.70;;;0.70;;
8161;SDS011;16778;48.154;15.094;2022-07-29T00:07:29;0.87;;;0.80;;
8161;SDS011;16778;48.154;15.094;2022-07-29T00:09:55;2.23;;;1.10;;
8161;SDS011;16778;48.154;15.094;2022-07-29T00:12:22;1.80;;;1.10;;
8161;SDS011;16778;48.154;15.094;2022-07-29T00:14:49;1.13;;;1.03;;
8161;SDS011;16778;48.154;15.094;2022-07-29T00:17:15;1.17;;;0.87;;
8161;SDS011;16778;48.154;15.094;2022-07-29T00:19:41;1.50;;;1.23;;
8161;SDS011;16778;48.154;15.094;2022-07-29T00:22:07;2.70;;;1.13;;
8161;SDS011;16778;48.154;15.094;2022-07-29T00:24:33;1.10;;;0.93;;
8161;SDS011;16778;48.154;15.094;2022-07-29T00:26:59;1.70;;;1.10;;
8161;SDS011;16778;48.154;15.094;2022-07-29T00:29:24;1.20;;;1.10;;
8161;SDS011;16778;48.154;15.094;2022-07-29T00:31:50;0.93;;;0.90;;
8161;SDS011;16778;48.154;15.094;2022-07-29T00:34:16;1.30;;;0.93;;
8161;SDS011;16778;48.154;15.094;2022-07-29T00:37:01;1.20;;;1.10;;
8161;SDS011;16778;48.154;15.094;2022-07-29T00:39:27;1.10;;;1.00;;
8161;SDS011;16778;48.154;15.094;2022-07-29T00:41:52;1.43;;;1.13;;
8161;SDS011;16778;48.154;15.094;2022-07-29T00:44:18;1.83;;;1.10;;
8161;SDS011;16778;48.154;15.094;2022-07-29T00:46:44;1.50;;;1.10;;
8161;SDS011;16778;48.154;15.094;2022-07-29T00:49:10;1.50;;;1.00;;
8161;SDS011;16778;48.154;15.094;2022-07-29T00:51:36;1.57;;;1.30;;
8161;SDS011;16778;48.154;15.094;2022-07-29T00:54:03;1.37;;;1.27;;
8161;SDS011;16778;48.154;15.094;2022-07-29T00:56:30;2.90;;;1.23;;
8161;SDS011;16778;48.154;15.094;2022-07-29T00:58:58;1.13;;;0.90;;
8161;SDS011;16778;48.154;15.094;2022-07-29T01:01:24;2.03;;;1.07;;
8161;SDS011;16778;48.154;15.094;2022-07-29T01:03:51;1.17;;;1.03;;
8161;SDS011;16778;48.154;15.094;2022-07-29T01:06:17;1.50;;;1.10;;
8161;SDS011;16778;48.154;15.094;2022-07-29T01:08:44;1.00;;;0.90;;
8161;SDS011;16778;48.154;15.094;2022-07-29T01:11:12;1.70;;;1.43;;
8161;SDS011;16778;48.154;15.094;2022-07-29T01:13:41;1.03;;;1.00;;
8161;SDS011;16778;48.154;15.094;2022-07-29T01:16:54;2.07;;;1.27;;
8161;SDS011;16778;48.154;15.094;2022-07-29T01:19:00;1.53;;;1.13;;
8161;SDS011;16778;48.154;15.094;2022-07-29T01:27:22;0.83;;;0.80;;
8161;SDS011;16778;48.154;15.094;2022-07-29T01:30:21;1.77;;;1.30;;
8161;SDS011;16778;48.154;15.094;2022-07-29T01:32:50;1.33;;;1.00;;
8161;SDS011;16778;48.154;15.094;2022-07-29T01:35:24;1.57;;;1.00;;
8161;SDS011;16778;48.154;15.094;2022-07-29T01:41:02;3.73;;;1.50;;
8161;SDS011;16778;48.154;15.094;2022-07-29T01:43:37;0.90;;;0.90;;
8161;SDS011;16778;48.154;15.094;2022-07-29T01:46:18;1.53;;;1.30;;
8161;SDS011;16778;48.154;15.094;2022-07-29T01:48:53;4.37;;;1.30;;
8161;SDS011;16778;48.154;15.094;2022-07-29T01:51:27;1.60;;;1.13;;
8161;SDS011;16778;48.154;15.094;2022-07-29T01:54:10;1.53;;;1.20;;
8161;SDS011;16778;48.154;15.094;2022-07-29T01:56:56;1.33;;;1.23;;
8161;SDS011;16778;48.154;15.094;2022-07-29T01:59:25;1.50;;;1.30;;
8161;SDS011;16778;48.154;15.094;2022-07-29T02:01:53;2.00;;;1.30;;
8161;SDS011;16778;48.154;15.094;2022-07-29T02:04:23;0.87;;;0.77;;
8161;SDS011;16778;48.154;15.094;2022-07-29T02:06:51;1.90;;;1.60;;
8161;SDS011;16778;48.154;15.094;2022-07-29T02:09:19;1.60;;;1.30;;
8161;SDS011;16778;48.154;15.094;2022-07-29T02:11:48;1.30;;;1.13;;
8161;SDS011;16778;48.154;15.094;2022-07-29T02:14:19;0.80;;;0.80;;
8161;SDS011;16778;48.154;15.094;2022-07-29T02:16:48;1.43;;;1.10;;
8161;SDS011;16778;48.154;15.094;2022-07-29T02:19:19;1.90;;;1.40;;
8161;SDS011;16778;48.154;15.094;2022-07-29T02:21:51;1.20;;;1.10;;
8161;SDS011;16778;48.154;15.094;2022-07-29T02:24:20;1.67;;;1.33;;
8161;SDS011;16778;48.154;15.094;2022-07-29T02:26:48;1.63;;;1.20;;
8161;SDS011;16778;48.154;15.094;2022-07-29T02:29:18;1.67;;;1.30;;
8161;SDS011;16778;48.154;15.094;2022-07-29T02:31:51;1.00;;;0.90;;
8161;SDS011;16778;48.154;15.094;2022-07-29T02:34:19;2.40;;;1.40;;
8161;SDS011;16778;48.154;15.094;2022-07-29T02:36:46;1.10;;;1.00;;
8161;SDS011;16778;48.154;15.094;2022-07-29T02:39:13;1.37;;;1.17;;
8161;SDS011;16778;48.154;15.094;2022-07-29T02:41:49;2.90;;;1.33;;
8161;SDS011;16778;48.154;15.094;2022-07-29T02:44:19;1.43;;;1.17;;
8161;SDS011;16778;48.154;15.094;2022-07-29T02:52:06;3.70;;;1.30;;
8161;SDS011;16778;48.154;15.094;2022-07-29T02:54:55;1.83;;;1.43;;
8161;SDS011;16778;48.154;15.094;2022-07-29T02:58:03;1.10;;;1.00;;
8161;SDS011;16778;48.154;15.094;2022-07-29T03:00:40;2.00;;;1.20;;
8161;SDS011;16778;48.154;15.094;2022-07-29T03:03:09;2.13;;;1.40;;
8161;SDS011;16778;48.154;15.094;2022-07-29T03:05:40;1.70;;;1.27;;
8161;SDS011;16778;48.154;15.094;2022-07-29T03:08:06;1.60;;;1.33;;
8161;SDS011;16778;48.154;15.094;2022-07-29T03:10:35;1.93;;;1.40;;
8161;SDS011;16778;48.154;15.094;2022-07-29T03:13:08;2.10;;;1.30;;
8161;SDS011;16778;48.154;15.094;2022-07-29T03:15:35;1.33;;;1.00;;
8161;SDS011;16778;48.154;15.094;2022-07-29T03:18:02;2.23;;;1.37;;
8161;SDS011;16778;48.154;15.094;2022-07-29T03:20:28;1.37;;;1.20;;
8161;SDS011;16778;48.154;15.094;2022-07-29T03:22:54;2.93;;;1.70;;
8161;SDS011;16778;48.154;15.094;2022-07-29T03:25:20;2.20;;;1.37;;
8161;SDS011;16778;48.154;15.094;2022-07-29T03:27:46;2.07;;;1.20;;
8161;SDS011;16778;48.154;15.094;2022-07-29T03:30:13;1.30;;;1.13;;
8161;SDS011;16778;48.154;15.094;2022-07-29T03:32:40;1.37;;;1.13;;
8161;SDS011;16778;48.154;15.094;2022-07-29T03:35:07;1.50;;;1.40;;
8161;SDS011;16778;48.154;15.094;2022-07-29T03:37:33;1.93;;;1.20;;
8161;SDS011;16778;48.154;15.094;2022-07-29T03:40:02;2.23;;;1.43;;
8161;SDS011;16778;48.154;15.094;2022-07-29T03:42:32;1.30;;;1.10;;
8161;SDS011;16778;48.154;15.094;2022-07-29T03:45:02;1.27;;;1.07;;
8161;SDS011;16778;48.154;15.094;2022-07-29T03:47:33;2.10;;;1.63;;
8161;SDS011;16778;48.154;15.094;2022-07-29T03:50:05;1.50;;;1.40;;
8161;SDS011;16778;48.154;15.094;2022-07-29T03:52:33;1.40;;;1.00;;
8161;SDS011;16778;48.154;15.094;2022-07-29T03:55:00;1.90;;;1.50;;
8161;SDS011;16778;48.154;15.094;2022-07-29T03:57:28;1.30;;;1.20;;
8161;SDS011;16778;48.154;15.094;2022-07-29T03:59:57;2.63;;;1.80;;
8161;SDS011;16778;48.154;15.094;2022-07-29T04:02:24;2.97;;;1.43;;
8161;SDS011;16778;48.154;15.094;2022-07-29T04:04:50;1.53;;;1.07;;
8161;SDS011;16778;48.154;15.094;2022-07-29T04:07:17;1.67;;;1.20;;
8161;SDS011;16778;48.154;15.094;2022-07-29T04:09:43;1.43;;;1.23;;
8161;SDS011;16778;48.154;15.094;2022-07-29T04:12:09;2.70;;;1.33;;
8161;SDS011;16778;48.154;15.094;2022-07-29T04:14:35;2.37;;;1.30;;
8161;SDS011;16778;48.154;15.094;2022-07-29T04:17:02;1.90;;;1.57;;
8161;SDS011;16778;48.154;15.094;2022-07-29T04:19:29;1.27;;;1.17;;
8161;SDS011;16778;48.154;15.094;2022-07-29T04:21:56;1.43;;;1.13;;
8161;SDS011;16778;48.154;15.094;2022-07-29T04:24:23;2.80;;;1.70;;
8161;SDS011;16778;48.154;15.094;2022-07-29T04:26:50;1.90;;;1.43;;
8161;SDS011;16778;48.154;15.094;2022-07-29T04:29:16;1.97;;;1.57;;
8161;SDS011;16778;48.154;15.094;2022-07-29T04:31:42;4.17;;;1.60;;
8161;SDS011;16778;48.154;15.094;2022-07-29T04:34:08;2.70;;;1.70;;
8161;SDS011;16778;48.154;15.094;2022-07-29T04:36:35;1.53;;;1.43;;
8161;SDS011;16778;48.154;15.094;2022-07-29T04:39:01;1.83;;;1.37;;
8161;SDS011;16778;48.154;15.094;2022-07-29T04:41:28;2.07;;;1.50;;
8161;SDS011;16778;48.154;15.094;2022-07-29T04:43:54;2.00;;;1.80;;
8161;SDS011;16778;48.154;15.094;2022-07-29T04:46:20;2.50;;;1.50;;
8161;SDS011;16778;48.154;15.094;2022-07-29T04:48:46;3.00;;;1.83;;
8161;SDS011;16778;48.154;15.094;2022-07-29T04:51:16;2.17;;;1.57;;
8161;SDS011;16778;48.154;15.094;2022-07-29T04:53:42;1.70;;;1.60;;
8161;SDS011;16778;48.154;15.094;2022-07-29T04:56:08;2.70;;;1.50;;
8161;SDS011;16778;48.154;15.094;2022-07-29T04:58:34;2.63;;;1.77;;
8161;SDS011;16778;48.154;15.094;2022-07-29T05:01:00;1.73;;;1.47;;
8161;SDS011;16778;48.154;15.094;2022-07-29T05:03:26;2.40;;;1.83;;
8161;SDS011;16778;48.154;15.094;2022-07-29T05:05:52;2.37;;;1.50;;
8161;SDS011;16778;48.154;15.094;2022-07-29T05:08:18;1.70;;;1.60;;
8161;SDS011;16778;48.154;15.094;2022-07-29T05:10:44;2.20;;;2.00;;
8161;SDS011;16778;48.154;15.094;2022-07-29T05:13:11;2.17;;;1.80;;
8161;SDS011;16778;48.154;15.094;2022-07-29T05:15:37;2.77;;;1.67;;
8161;SDS011;16778;48.154;15.094;2022-07-29T05:18:03;3.00;;;1.70;;
8161;SDS011;16778;48.154;15.094;2022-07-29T05:20:29;1.53;;;1.33;;
8161;SDS011;16778;48.154;15.094;2022-07-29T05:22:59;2.47;;;1.73;;
8161;SDS011;16778;48.154;15.094;2022-07-29T05:25:26;2.27;;;1.80;;
8161;SDS011;16778;48.154;15.094;2022-07-29T05:27:53;3.17;;;1.90;;
8161;SDS011;16778;48.154;15.094;2022-07-29T05:30:19;1.63;;;1.40;;
8161;SDS011;16778;48.154;15.094;2022-07-29T05:32:45;1.80;;;1.70;;
8161;SDS011;16778;48.154;15.094;2022-07-29T05:35:12;2.87;;;1.73;;
8161;SDS011;16778;48.154;15.094;2022-07-29T05:37:39;2.00;;;1.80;;
8161;SDS011;16778;48.154;15.094;2022-07-29T05:40:05;2.23;;;1.50;;
8161;SDS011;16778;48.154;15.094;2022-07-29T05:42:32;1.90;;;1.67;;
8161;SDS011;16778;48.154;15.094;2022-07-29T05:44:58;1.83;;;1.70;;
8161;SDS011;16778;48.154;15.094;2022-07-29T05:47:26;2.23;;;1.93;;
8161;SDS011;16778;48.154;15.094;2022-07-29T05:49:52;2.43;;;1.53;;
8161;SDS011;16778;48.154;15.094;2022-07-29T05:52:18;2.00;;;1.80;;
8161;SDS011;16778;48.154;15.094;2022-07-29T05:54:45;1.70;;;1.37;;
8161;SDS011;16778;48.154;15.094;2022-07-29T05:57:18;3.07;;;1.30;;
8161;SDS011;16778;48.154;15.094;2022-07-29T05:59:46;1.90;;;1.60;;
8161;SDS011;16778;48.154;15.094;2022-07-29T06:02:13;1.67;;;1.37;;
8161;SDS011;16778;48.154;15.094;2022-07-29T06:04:39;1.60;;;1.37;;
8161;SDS011;16778;48.154;15.094;2022-07-29T06:07:05;2.03;;;1.80;;
8161;SDS011;16778;48.154;15.094;2022-07-29T06:09:31;1.70;;;1.33;;
8161;SDS011;16778;48.154;15.094;2022-07-29T06:11:58;1.70;;;1.53;;
8161;SDS011;16778;48.154;15.094;2022-07-29T06:14:24;2.53;;;1.57;;
8161;SDS011;16778;48.154;15.094;2022-07-29T06:16:51;2.50;;;1.73;;
8161;SDS011;16778;48.154;15.094;2022-07-29T06:19:18;1.43;;;1.33;;
8161;SDS011;16778;48.154;15.094;2022-07-29T06:21:44;1.67;;;1.57;;
8161;SDS011;16778;48.154;15.094;2022-07-29T06:24:12;1.80;;;1.60;;
8161;SDS011;16778;48.154;15.094;2022-07-29T06:26:39;1.70;;;1.60;;
8161;SDS011;16778;48.154;15.094;2022-07-29T06:29:06;1.67;;;1.47;;
8161;SDS011;16778;48.154;15.094;2022-07-29T06:31:33;1.60;;;1.50;;
8161;SDS011;16778;48.154;15.094;2022-07-29T06:33:59;2.87;;;1.80;;
8161;SDS011;16778;48.154;15.094;2022-07-29T06:36:25;2.07;;;1.63;;
8161;SDS011;16778;48.154;15.094;2022-07-29T06:38:51;1.77;;;1.50;;
8161;SDS011;16778;48.154;15.094;2022-07-29T06:41:17;2.60;;;1.70;;
8161;SDS011;16778;48.154;15.094;2022-07-29T06:43:43;2.40;;;1.83;;
8161;SDS011;16778;48.154;15.094;2022-07-29T06:46:11;1.97;;;1.63;;
8161;SDS011;16778;48.154;15.094;2022-07-29T06:48:41;1.80;;;1.40;;
8161;SDS011;16778;48.154;15.094;2022-07-29T06:51:08;3.63;;;2.10;;
8161;SDS011;16778;48.154;15.094;2022-07-29T06:53:36;1.70;;;1.60;;
8161;SDS011;16778;48.154;15.094;2022-07-29T06:56:04;2.43;;;1.77;;
8161;SDS011;16778;48.154;15.094;2022-07-29T06:58:33;1.70;;;1.50;;
8161;SDS011;16778;48.154;15.094;2022-07-29T07:01:04;2.80;;;2.13;;
8161;SDS011;16778;48.154;15.094;2022-07-29T07:03:31;2.67;;;1.50;;
8161;SDS011;16778;48.154;15.094;2022-07-29T07:05:57;2.80;;;1.50;;
8161;SDS011;16778;48.154;15.094;2022-07-29T07:08:23;1.67;;;1.50;;
8161;SDS011;16778;48.154;15.094;2022-07-29T07:10:50;3.53;;;1.90;;
8161;SDS011;16778;48.154;15.094;2022-07-29T07:13:16;1.80;;;1.70;;
8161;SDS011;16778;48.154;15.094;2022-07-29T07:15:42;2.23;;;1.80;;
8161;SDS011;16778;48.154;15.094;2022-07-29T07:18:09;2.57;;;1.87;;
8161;SDS011;16778;48.154;15.094;2022-07-29T07:20:35;2.60;;;2.10;;
8161;SDS011;16778;48.154;15.094;2022-07-29T07:23:02;2.37;;;2.00;;
8161;SDS011;16778;48.154;15.094;2022-07-29T07:25:28;3.33;;;2.17;;
8161;SDS011;16778;48.154;15.094;2022-07-29T07:27:54;1.70;;;1.40;;
8161;SDS011;16778;48.154;15.094;2022-07-29T07:30:20;2.60;;;1.77;;
8161;SDS011;16778;48.154;15.094;2022-07-29T07:32:46;2.37;;;2.10;;
8161;SDS011;16778;48.154;15.094;2022-07-29T07:35:12;2.60;;;1.90;;
8161;SDS011;16778;48.154;15.094;2022-07-29T07:37:38;2.43;;;1.33;;
8161;SDS011;16778;48.154;15.094;2022-07-29T07:40:05;2.27;;;1.83;;
8161;SDS011;16778;48.154;15.094;2022-07-29T07:42:33;2.13;;;1.83;;
8161;SDS011;16778;48.154;15.094;2022-07-29T07:44:59;2.33;;;2.00;;
8161;SDS011;16778;48.154;15.094;2022-07-29T07:47:25;2.40;;;1.83;;
8161;SDS011;16778;48.154;15.094;2022-07-29T07:49:52;3.27;;;2.33;;
8161;SDS011;16778;48.154;15.094;2022-07-29T07:52:19;2.50;;;2.23;;
8161;SDS011;16778;48.154;15.094;2022-07-29T07:54:47;3.70;;;2.80;;
8161;SDS011;16778;48.154;15.094;2022-07-29T07:57:13;2.50;;;2.03;;
8161;SDS011;16778;48.154;15.094;2022-07-29T07:59:40;3.20;;;1.87;;
8161;SDS011;16778;48.154;15.094;2022-07-29T08:02:06;2.33;;;1.70;;
8161;SDS011;16778;48.154;15.094;2022-07-29T08:04:33;2.57;;;1.70;;
8161;SDS011;16778;48.154;15.094;2022-07-29T08:07:00;2.07;;;1.80;;
8161;SDS011;16778;48.154;15.094;2022-07-29T08:09:26;2.67;;;1.90;;
8161;SDS011;16778;48.154;15.094;2022-07-29T08:11:54;1.70;;;1.60;;
8161;SDS011;16778;48.154;15.094;2022-07-29T08:14:20;2.93;;;2.50;;
8161;SDS011;16778;48.154;15.094;2022-07-29T08:16:46;2.80;;;1.80;;
8161;SDS011;16778;48.154;15.094;2022-07-29T08:19:12;2.10;;;1.77;;
8161;SDS011;16778;48.154;15.094;2022-07-29T08:21:38;2.43;;;1.83;;
8161;SDS011;16778;48.154;15.094;2022-07-29T08:24:04;2.40;;;1.80;;
8161;SDS011;16778;48.154;15.094;2022-07-29T08:26:49;2.27;;;2.07;;
8161;SDS011;16778;48.154;15.094;2022-07-29T08:29:15;2.27;;;2.07;;
8161;SDS011;16778;48.154;15.094;2022-07-29T08:31:41;1.87;;;1.67;;
8161;SDS011;16778;48.154;15.094;2022-07-29T08:34:07;3.63;;;2.10;;
8161;SDS011;16778;48.154;15.094;2022-07-29T08:36:34;1.77;;;1.60;;
8161;SDS011;16778;48.154;15.094;2022-07-29T08:39:00;2.23;;;1.73;;
8161;SDS011;16778;48.154;15.094;2022-07-29T08:41:27;3.10;;;1.73;;
8161;SDS011;16778;48.154;15.094;2022-07-29T08:43:53;1.57;;;1.47;;
8161;SDS011;16778;48.154;15.094;2022-07-29T08:46:19;2.73;;;1.70;;
8161;SDS011;16778;48.154;15.094;2022-07-29T08:48:46;1.83;;;1.67;;
8161;SDS011;16778;48.154;15.094;2022-07-29T08:51:14;2.67;;;1.50;;
8161;SDS011;16778;48.154;15.094;2022-07-29T08:53:43;1.50;;;1.40;;
8161;SDS011;16778;48.154;15.094;2022-07-29T08:56:15;1.77;;;1.60;;
8161;SDS011;16778;48.154;15.094;2022-07-29T08:58:43;1.63;;;1.53;;
8161;SDS011;16778;48.154;15.094;2022-07-29T09:01:10;3.80;;;1.80;;
8161;SDS011;16778;48.154;15.094;2022-07-29T09:03:41;2.13;;;1.77;;
8161;SDS011;16778;48.154;15.094;2022-07-29T09:06:17;1.93;;;1.70;;
8161;SDS011;16778;48.154;15.094;2022-07-29T09:08:46;1.87;;;1.47;;
8161;SDS011;16778;48.154;15.094;2022-07-29T09:11:13;1.40;;;1.30;;
8161;SDS011;16778;48.154;15.094;2022-07-29T09:13:39;1.73;;;1.50;;
8161;SDS011;16778;48.154;15.094;2022-07-29T09:16:06;1.90;;;1.70;;
8161;SDS011;16778;48.154;15.094;2022-07-29T09:20:58;2.07;;;1.80;;
8161;SDS011;16778;48.154;15.094;2022-07-29T09:23:58;2.07;;;1.60;;
8161;SDS011;16778;48.154;15.094;2022-07-29T09:26:29;2.33;;;1.87;;
8161;SDS011;16778;48.154;15.094;2022-07-29T09:28:57;1.70;;;1.60;;
8161;SDS011;16778;48.154;15.094;2022-07-29T09:31:34;1.43;;;1.20;;
8161;SDS011;16778;48.154;15.094;2022-07-29T09:34:03;1.70;;;1.47;;
8161;SDS011;16778;48.154;15.094;2022-07-29T09:36:30;2.87;;;1.83;;
8161;SDS011;16778;48.154;15.094;2022-07-29T09:39:09;1.30;;;1.07;;
8161;SDS011;16778;48.154;15.094;2022-07-29T09:41:48;2.13;;;1.67;;
8161;SDS011;16778;48.154;15.094;2022-07-29T09:44:20;1.37;;;1.20;;
8161;SDS011;16778;48.154;15.094;2022-07-29T09:47:02;1.67;;;1.30;;
8161;SDS011;16778;48.154;15.094;2022-07-29T09:49:33;1.83;;;1.63;;
8161;SDS011;16778;48.154;15.094;2022-07-29T09:54:31;3.27;;;2.00;;
8161;SDS011;16778;48.154;15.094;2022-07-29T09:57:01;1.43;;;1.33;;
8161;SDS011;16778;48.154;15.094;2022-07-29T09:59:33;1.60;;;1.40;;
8161;SDS011;16778;48.154;15.094;2022-07-29T10:01:59;1.37;;;1.27;;
8161;SDS011;16778;48.154;15.094;2022-07-29T10:04:39;2.97;;;1.30;;
8161;SDS011;16778;48.154;15.094;2022-07-29T10:07:07;1.70;;;1.40;;
8161;SDS011;16778;48.154;15.094;2022-07-29T10:09:34;2.17;;;1.37;;
8161;SDS011;16778;48.154;15.094;2022-07-29T10:12:08;2.23;;;1.60;;
8161;SDS011;16778;48.154;15.094;2022-07-29T10:14:40;1.57;;;1.47;;
8161;SDS011;16778;48.154;15.094;2022-07-29T10:17:08;1.57;;;1.43;;
8161;SDS011;16778;48.154;15.094;2022-07-29T10:19:35;1.53;;;1.40;;
8161;SDS011;16778;48.154;15.094;2022-07-29T10:22:04;1.97;;;1.57;;
8161;SDS011;16778;48.154;15.094;2022-07-29T10:24:35;1.70;;;1.60;;
8161;SDS011;16778;48.154;15.094;2022-07-29T10:27:04;2.53;;;1.73;;
8161;SDS011;16778;48.154;15.094;2022-07-29T10:29:32;1.57;;;1.23;;
8161;SDS011;16778;48.154;15.094;2022-07-29T10:38:15;2.40;;;1.90;;
8161;SDS011;16778;48.154;15.094;2022-07-29T10:44:01;1.73;;;1.63;;
8161;SDS011;16778;48.154;15.094;2022-07-29T10:46:37;1.90;;;1.43;;
8161;SDS011;16778;48.154;15.094;2022-07-29T10:54:37;1.67;;;1.20;;
8161;SDS011;16778;48.154;15.094;2022-07-29T10:59:42;1.53;;;1.43;;
8161;SDS011;16778;48.154;15.094;2022-07-29T11:07:24;1.57;;;1.10;;
8161;SDS011;16778;48.154;15.094;2022-07-29T11:15:08;1.17;;;1.07;;
8161;SDS011;16778;48.154;15.094;2022-07-29T11:23:23;1.43;;;1.33;;
8161;SDS011;16778;48.154;15.094;2022-07-29T11:47:25;2.03;;;1.60;;
8161;SDS011;16778;48.154;15.094;2022-07-29T11:49:53;1.55;;;1.45;;
8161;SDS011;16778;48.154;15.094;2022-07-29T11:52:41;2.67;;;1.55;;
8161;SDS011;16778;48.154;15.094;2022-07-29T11:55:12;1.10;;;1.00;;
8161;SDS011;16778;48.154;15.094;2022-07-29T12:00:21;1.10;;;1.10;;
8161;SDS011;16778;48.154;15.094;2022-07-29T12:02:47;1.90;;;1.50;;
8161;SDS011;16778;48.154;15.094;2022-07-29T12:05:13;3.20;;;1.63;;
8161;SDS011;16778;48.154;15.094;2022-07-29T12:07:40;2.27;;;1.37;;
8161;SDS011;16778;48.154;15.094;2022-07-29T12:10:06;1.77;;;1.60;;
8161;SDS011;16778;48.154;15.094;2022-07-29T12:12:33;1.70;;;1.40;;
8161;SDS011;16778;48.154;15.094;2022-07-29T12:17:45;1.73;;;1.20;;
8161;SDS011;16778;48.154;15.094;2022-07-29T12:20:12;1.50;;;1.37;;
8161;SDS011;16778;48.154;15.094;2022-07-29T12:22:46;2.03;;;1.30;;
8161;SDS011;16778;48.154;15.094;2022-07-29T12:25:14;2.90;;;1.47;;
8161;SDS011;16778;48.154;15.094;2022-07-29T12:27:41;1.50;;;1.40;;
8161;SDS011;16778;48.154;15.094;2022-07-29T12:30:14;1.30;;;1.20;;
8161;SDS011;16778;48.154;15.094;2022-07-29T12:32:45;1.40;;;1.30;;
8161;SDS011;16778;48.154;15.094;2022-07-29T12:35:19;1.23;;;1.13;;
8161;SDS011;16778;48.154;15.094;2022-07-29T12:37:46;1.40;;;1.30;;
8161;SDS011;16778;48.154;15.094;2022-07-29T12:40:16;1.40;;;1.27;;
8161;SDS011;16778;48.154;15.094;2022-07-29T12:45:32;1.37;;;1.27;;
8161;SDS011;16778;48.154;15.094;2022-07-29T12:47:58;1.70;;;1.23;;
8161;SDS011;16778;48.154;15.094;2022-07-29T12:50:24;1.20;;;1.10;;
8161;SDS011;16778;48.154;15.094;2022-07-29T12:52:50;1.23;;;1.13;;
8161;SDS011;16778;48.154;15.094;2022-07-29T12:55:37;1.60;;;1.20;;
8161;SDS011;16778;48.154;15.094;2022-07-29T12:58:13;1.83;;;1.30;;
8161;SDS011;16778;48.154;15.094;2022-07-29T13:01:13;1.73;;;1.10;;
8161;SDS011;16778;48.154;15.094;2022-07-29T13:03:43;1.50;;;1.27;;
8161;SDS011;16778;48.154;15.094;2022-07-29T13:09:07;1.10;;;1.00;;
8161;SDS011;16778;48.154;15.094;2022-07-29T13:11:46;1.30;;;1.20;;
8161;SDS011;16778;48.154;15.094;2022-07-29T13:14:32;1.00;;;0.90;;
8161;SDS011;16778;48.154;15.094;2022-07-29T13:17:07;1.23;;;1.10;;
8161;SDS011;16778;48.154;15.094;2022-07-29T13:22:29;0.77;;;0.77;;
8161;SDS011;16778;48.154;15.094;2022-07-29T13:24:56;0.80;;;0.80;;
8161;SDS011;16778;48.154;15.094;2022-07-29T13:27:29;1.40;;;1.00;;
8161;SDS011;16778;48.154;15.094;2022-07-29T13:29:57;1.20;;;1.10;;
8161;SDS011;16778;48.154;15.094;2022-07-29T13:32:26;1.10;;;1.00;;
8161;SDS011;16778;48.154;15.094;2022-07-29T13:34:56;1.23;;;0.97;;
8161;SDS011;16778;48.154;15.094;2022-07-29T13:37:25;0.90;;;0.90;;
8161;SDS011;16778;48.154;15.094;2022-07-29T13:39:54;0.90;;;0.90;;
8161;SDS011;16778;48.154;15.094;2022-07-29T13:42:21;1.20;;;1.10;;
8161;SDS011;16778;48.154;15.094;2022-07-29T13:44:48;1.00;;;1.00;;
8161;SDS011;16778;48.154;15.094;2022-07-29T13:47:15;1.10;;;1.00;;
8161;SDS011;16778;48.154;15.094;2022-07-29T13:49:42;1.00;;;1.00;;
8161;SDS011;16778;48.154;15.094;2022-07-29T13:52:08;0.80;;;0.80;;
8161;SDS011;16778;48.154;15.094;2022-07-29T13:54:34;0.88;;;0.88;;
8161;SDS011;16778;48.154;15.094;2022-07-29T13:57:06;1.05;;;0.98;;
8161;SDS011;16778;48.154;15.094;2022-07-29T13:59:33;1.23;;;1.10;;
8161;SDS011;16778;48.154;15.094;2022-07-29T14:01:59;1.90;;;0.85;;
8161;SDS011;16778;48.154;15.094;2022-07-29T14:04:24;1.67;;;1.30;;
8161;SDS011;16778;48.154;15.094;2022-07-29T14:06:51;1.63;;;1.02;;
8161;SDS011;16778;48.154;15.094;2022-07-29T14:09:17;1.00;;;0.90;;
8161;SDS011;16778;48.154;15.094;2022-07-29T14:11:43;1.10;;;1.00;;
8161;SDS011;16778;48.154;15.094;2022-07-29T14:14:10;1.20;;;1.10;;
8161;SDS011;16778;48.154;15.094;2022-07-29T14:16:36;1.20;;;1.10;;
8161;SDS011;16778;48.154;15.094;2022-07-29T14:19:02;1.30;;;0.93;;
8161;SDS011;16778;48.154;15.094;2022-07-29T14:21:28;1.30;;;1.20;;
8161;SDS011;16778;48.154;15.094;2022-07-29T14:23:55;1.20;;;1.10;;
8161;SDS011;16778;48.154;15.094;2022-07-29T14:26:21;0.80;;;0.80;;
8161;SDS011;16778;48.154;15.094;2022-07-29T14:28:47;1.30;;;1.20;;
8161;SDS011;16778;48.154;15.094;2022-07-29T14:31:14;1.13;;;0.90;;
8161;SDS011;16778;48.154;15.094;2022-07-29T14:33:41;1.10;;;1.00;;
8161;SDS011;16778;48.154;15.094;2022-07-29T14:36:07;1.02;;;1.00;;
8161;SDS011;16778;48.154;15.094;2022-07-29T14:38:34;1.20;;;1.10;;
8161;SDS011;16778;48.154;15.094;2022-07-29T14:41:02;0.80;;;0.80;;
8161;SDS011;16778;48.154;15.094;2022-07-29T14:43:28;0.90;;;0.90;;
8161;SDS011;16778;48.154;15.094;2022-07-29T14:45:54;1.00;;;0.90;;
8161;SDS011;16778;48.154;15.094;2022-07-29T14:48:21;1.38;;;1.20;;
8161;SDS011;16778;48.154;15.094;2022-07-29T14:50:47;1.00;;;1.00;;
8161;SDS011;16778;48.154;15.094;2022-07-29T14:53:13;1.17;;;1.08;;
8161;SDS011;16778;48.154;15.094;2022-07-29T14:55:39;1.50;;;1.40;;
8161;SDS011;16778;48.154;15.094;2022-07-29T14:58:05;1.75;;;1.65;;
8161;SDS011;16778;48.154;15.094;2022-07-29T15:00:31;1.13;;;1.02;;
8161;SDS011;16778;48.154;15.094;2022-07-29T15:02:59;1.20;;;1.10;;
8161;SDS011;16778;48.154;15.094;2022-07-29T15:05:26;1.25;;;1.15;;
8161;SDS011;16778;48.154;15.094;2022-07-29T15:07:52;1.25;;;1.15;;
8161;SDS011;16778;48.154;15.094;2022-07-29T15:10:18;1.42;;;1.10;;
8161;SDS011;16778;48.154;15.094;2022-07-29T15:12:44;1.10;;;1.10;;
8161;SDS011;16778;48.154;15.094;2022-07-29T15:15:10;1.15;;;1.05;;
8161;SDS011;16778;48.154;15.094;2022-07-29T15:17:36;1.40;;;1.30;;
8161;SDS011;16778;48.154;15.094;2022-07-29T15:20:02;4.18;;;1.02;;
8161;SDS011;16778;48.154;15.094;2022-07-29T15:22:29;1.10;;;1.00;;
8161;SDS011;16778;48.154;15.094;2022-07-29T15:24:55;1.42;;;1.33;;
8161;SDS011;16778;48.154;15.094;2022-07-29T15:27:21;1.10;;;1.00;;
8161;SDS011;16778;48.154;15.094;2022-07-29T15:29:46;1.00;;;1.00;;
8161;SDS011;16778;48.154;15.094;2022-07-29T15:32:12;1.20;;;1.10;;
8161;SDS011;16778;48.154;15.094;2022-07-29T15:34:39;1.10;;;0.98;;
8161;SDS011;16778;48.154;15.094;2022-07-29T15:37:05;1.33;;;1.23;;
8161;SDS011;16778;48.154;15.094;2022-07-29T15:39:31;1.30;;;1.20;;
8161;SDS011;16778;48.154;15.094;2022-07-29T15:41:57;1.15;;;1.13;;
8161;SDS011;16778;48.154;15.094;2022-07-29T15:44:24;1.77;;;1.20;;
8161;SDS011;16778;48.154;15.094;2022-07-29T15:46:50;1.17;;;1.08;;
8161;SDS011;16778;48.154;15.094;2022-07-29T15:49:38;1.35;;;1.25;;
8161;SDS011;16778;48.154;15.094;2022-07-29T15:52:06;1.30;;;1.20;;
8161;SDS011;16778;48.154;15.094;2022-07-29T15:54:34;1.38;;;1.27;;
8161;SDS011;16778;48.154;15.094;2022-07-29T15:57:03;1.00;;;1.00;;
8161;SDS011;16778;48.154;15.094;2022-07-29T15:59:30;1.00;;;1.00;;
8161;SDS011;16778;48.154;15.094;2022-07-29T16:01:57;1.38;;;1.13;;
8161;SDS011;16778;48.154;15.094;2022-07-29T16:04:23;1.15;;;1.10;;
8161;SDS011;16778;48.154;15.094;2022-07-29T16:06:49;1.20;;;1.10;;
8161;SDS011;16778;48.154;15.094;2022-07-29T16:09:15;1.13;;;1.08;;
8161;SDS011;16778;48.154;15.094;2022-07-29T16:11:42;1.02;;;1.00;;
8161;SDS011;16778;48.154;15.094;2022-07-29T16:14:10;1.00;;;1.00;;
8161;SDS011;16778;48.154;15.094;2022-07-29T16:16:36;1.10;;;1.00;;
8161;SDS011;16778;48.154;15.094;2022-07-29T16:19:03;0.90;;;0.90;;
8161;SDS011;16778;48.154;15.094;2022-07-29T16:21:30;0.98;;;0.93;;
8161;SDS011;16778;48.154;15.094;2022-07-29T16:23:58;0.90;;;0.90;;